sensor_id;sensor_type;location;lat;lon;timestamp;P1;durP1;ratioP1;P2;durP2;ratioP2
74644;SDS011;63163;55.630;37.594;2023-06-22T00:00:23;6.9;;;3.2;;
74644;SDS011;63163;55.630;37.594;2023-06-22T00:01:23;6.7;;;3.5;;
74644;SDS011;63163;55.630;37.594;2023-06-22T00:02:24;6.3;;;3.4;;
74644;SDS011;63163;55.630;37.594;2023-06-22T00:03:25;6.8;;;3.4;;
74644;SDS011;63163;55.630;37.594;2023-06-22T00:04:25;6.9;;;3.3;;
74644;SDS011;63163;55.630;37.594;2023-06-22T00:05:26;10.0;;;3.3;;
74644;SDS011;63163;55.630;37.594;2023-06-22T00:06:27;6.7;;;3.1;;
74644;SDS011;63163;55.630;37.594;2023-06-22T00:07:28;5.3;;;3.3;;
74644;SDS011;63163;55.630;37.594;2023-06-22T00:08:29;5.0;;;3.1;;
74644;SDS011;63163;55.630;37.594;2023-06-22T00:09:29;7.8;;;3.1;;
74644;SDS011;63163;55.630;37.594;2023-06-22T00:10:30;8.2;;;3.6;;
74644;SDS011;63163;55.630;37.594;2023-06-22T00:11:31;6.7;;;3.0;;
74644;SDS011;63163;55.630;37.594;2023-06-22T00:12:33;6.3;;;3.1;;
74644;SDS011;63163;55.630;37.594;2023-06-22T00:13:34;6.7;;;3.0;;
74644;SDS011;63163;55.630;37.594;2023-06-22T00:14:34;5.9;;;3.0;;
74644;SDS011;63163;55.630;37.594;2023-06-22T00:15:35;8.1;;;3.0;;
74644;SDS011;63163;55.630;37.594;2023-06-22T00:16:36;5.6;;;2.9;;
74644;SDS011;63163;55.630;37.594;2023-06-22T00:17:37;8.3;;;3.2;;
74644;SDS011;63163;55.630;37.594;2023-06-22T00:18:37;5.5;;;2.9;;
74644;SDS011;63163;55.630;37.594;2023-06-22T00:19:38;8.9;;;3.0;;
74644;SDS011;63163;55.630;37.594;2023-06-22T00:20:41;8.8;;;3.2;;
74644;SDS011;63163;55.630;37.594;2023-06-22T00:21:41;7.0;;;2.9;;
74644;SDS011;63163;55.630;37.594;2023-06-22T00:22:43;5.2;;;2.9;;
74644;SDS011;63163;55.630;37.594;2023-06-22T00:23:44;5.3;;;2.9;;
74644;SDS011;63163;55.630;37.594;2023-06-22T00:24:44;6.0;;;3.1;;
74644;SDS011;63163;55.630;37.594;2023-06-22T00:25:45;9.0;;;3.4;;
74644;SDS011;63163;55.630;37.594;2023-06-22T00:26:46;7.0;;;3.0;;
74644;SDS011;63163;55.630;37.594;2023-06-22T00:27:47;8.1;;;3.3;;
74644;SDS011;63163;55.630;37.594;2023-06-22T00:28:48;7.7;;;3.1;;
74644;SDS011;63163;55.630;37.594;2023-06-22T00:29:48;7.8;;;3.4;;
74644;SDS011;63163;55.630;37.594;2023-06-22T00:30:49;7.0;;;3.3;;
74644;SDS011;63163;55.630;37.594;2023-06-22T00:31:49;10.0;;;3.3;;
74644;SDS011;63163;55.630;37.594;2023-06-22T00:32:50;7.9;;;3.3;;
74644;SDS011;63163;55.630;37.594;2023-06-22T00:33:50;6.7;;;3.4;;
74644;SDS011;63163;55.630;37.594;2023-06-22T00:34:51;11.3;;;3.6;;
74644;SDS011;63163;55.630;37.594;2023-06-22T00:35:52;8.4;;;3.3;;
74644;SDS011;63163;55.630;37.594;2023-06-22T00:36:53;6.8;;;3.5;;
74644;SDS011;63163;55.630;37.594;2023-06-22T00:37:54;6.9;;;3.7;;
74644;SDS011;63163;55.630;37.594;2023-06-22T00:39:00;6.7;;;3.5;;
74644;SDS011;63163;55.630;37.594;2023-06-22T00:40:01;8.8;;;3.7;;
74644;SDS011;63163;55.630;37.594;2023-06-22T00:41:01;6.1;;;3.6;;
74644;SDS011;63163;55.630;37.594;2023-06-22T00:42:02;6.6;;;3.5;;
74644;SDS011;63163;55.630;37.594;2023-06-22T00:43:02;6.0;;;3.4;;
74644;SDS011;63163;55.630;37.594;2023-06-22T00:44:03;9.0;;;3.9;;
74644;SDS011;63163;55.630;37.594;2023-06-22T00:45:04;7.0;;;3.8;;
74644;SDS011;63163;55.630;37.594;2023-06-22T00:46:05;5.3;;;3.5;;
74644;SDS011;63163;55.630;37.594;2023-06-22T00:47:06;7.8;;;3.4;;
74644;SDS011;63163;55.630;37.594;2023-06-22T00:48:07;6.7;;;3.5;;
74644;SDS011;63163;55.630;37.594;2023-06-22T00:49:08;7.3;;;3.6;;
74644;SDS011;63163;55.630;37.594;2023-06-22T00:50:08;6.7;;;3.4;;
74644;SDS011;63163;55.630;37.594;2023-06-22T00:51:13;5.9;;;3.2;;
74644;SDS011;63163;55.630;37.594;2023-06-22T00:52:14;5.7;;;3.4;;
74644;SDS011;63163;55.630;37.594;2023-06-22T00:53:20;5.8;;;3.3;;
74644;SDS011;63163;55.630;37.594;2023-06-22T00:54:21;6.7;;;3.3;;
74644;SDS011;63163;55.630;37.594;2023-06-22T00:55:25;8.0;;;3.4;;
74644;SDS011;63163;55.630;37.594;2023-06-22T00:56:26;7.6;;;3.2;;
74644;SDS011;63163;55.630;37.594;2023-06-22T00:57:30;6.7;;;3.2;;
74644;SDS011;63163;55.630;37.594;2023-06-22T00:58:30;7.6;;;3.4;;
74644;SDS011;63163;55.630;37.594;2023-06-22T00:59:31;7.6;;;3.5;;
74644;SDS011;63163;55.630;37.594;2023-06-22T01:00:32;8.4;;;3.6;;
74644;SDS011;63163;55.630;37.594;2023-06-22T01:01:33;6.7;;;3.7;;
74644;SDS011;63163;55.630;37.594;2023-06-22T01:02:34;5.3;;;2.9;;
74644;SDS011;63163;55.630;37.594;2023-06-22T01:03:35;6.7;;;3.1;;
74644;SDS011;63163;55.630;37.594;2023-06-22T01:04:36;6.4;;;3.1;;
74644;SDS011;63163;55.630;37.594;2023-06-22T01:05:37;7.9;;;3.2;;
74644;SDS011;63163;55.630;37.594;2023-06-22T01:06:38;5.0;;;2.9;;
74644;SDS011;63163;55.630;37.594;2023-06-22T01:07:42;5.9;;;2.9;;
74644;SDS011;63163;55.630;37.594;2023-06-22T01:08:46;5.9;;;3.2;;
74644;SDS011;63163;55.630;37.594;2023-06-22T01:09:52;5.3;;;3.3;;
74644;SDS011;63163;55.630;37.594;2023-06-22T01:10:55;7.6;;;3.1;;
74644;SDS011;63163;55.630;37.594;2023-06-22T01:11:59;6.4;;;2.8;;
74644;SDS011;63163;55.630;37.594;2023-06-22T01:13:01;8.5;;;3.3;;
74644;SDS011;63163;55.630;37.594;2023-06-22T01:14:03;7.2;;;3.3;;
74644;SDS011;63163;55.630;37.594;2023-06-22T01:15:07;7.7;;;3.4;;
74644;SDS011;63163;55.630;37.594;2023-06-22T01:16:10;8.5;;;2.9;;
74644;SDS011;63163;55.630;37.594;2023-06-22T01:17:14;5.6;;;3.1;;
74644;SDS011;63163;55.630;37.594;2023-06-22T01:18:17;9.2;;;3.4;;
74644;SDS011;63163;55.630;37.594;2023-06-22T01:19:26;9.0;;;3.6;;
74644;SDS011;63163;55.630;37.594;2023-06-22T01:20:29;7.9;;;3.8;;
74644;SDS011;63163;55.630;37.594;2023-06-22T01:21:30;6.1;;;3.2;;
74644;SDS011;63163;55.630;37.594;2023-06-22T01:22:33;5.9;;;3.3;;
74644;SDS011;63163;55.630;37.594;2023-06-22T01:23:44;5.7;;;3.1;;
74644;SDS011;63163;55.630;37.594;2023-06-22T01:25:00;5.7;;;2.9;;
74644;SDS011;63163;55.630;37.594;2023-06-22T01:26:08;7.3;;;3.2;;
74644;SDS011;63163;55.630;37.594;2023-06-22T01:27:28;6.3;;;3.1;;
74644;SDS011;63163;55.630;37.594;2023-06-22T01:28:39;5.7;;;2.9;;
74644;SDS011;63163;55.630;37.594;2023-06-22T01:29:41;6.6;;;3.0;;
74644;SDS011;63163;55.630;37.594;2023-06-22T01:30:43;4.3;;;2.6;;
74644;SDS011;63163;55.630;37.594;2023-06-22T01:31:45;5.4;;;3.0;;
74644;SDS011;63163;55.630;37.594;2023-06-22T01:32:48;7.7;;;3.3;;
74644;SDS011;63163;55.630;37.594;2023-06-22T01:33:50;10.1;;;3.3;;
74644;SDS011;63163;55.630;37.594;2023-06-22T01:34:52;6.0;;;3.2;;
74644;SDS011;63163;55.630;37.594;2023-06-22T01:35:52;5.7;;;3.2;;
74644;SDS011;63163;55.630;37.594;2023-06-22T01:36:53;6.6;;;3.0;;
74644;SDS011;63163;55.630;37.594;2023-06-22T01:37:53;7.4;;;3.3;;
74644;SDS011;63163;55.630;37.594;2023-06-22T01:38:54;6.1;;;3.3;;
74644;SDS011;63163;55.630;37.594;2023-06-22T01:39:55;7.0;;;3.1;;
74644;SDS011;63163;55.630;37.594;2023-06-22T01:40:57;8.1;;;3.3;;
74644;SDS011;63163;55.630;37.594;2023-06-22T01:41:57;6.1;;;3.4;;
74644;SDS011;63163;55.630;37.594;2023-06-22T01:42:59;7.1;;;3.2;;
74644;SDS011;63163;55.630;37.594;2023-06-22T01:44:00;8.3;;;3.3;;
74644;SDS011;63163;55.630;37.594;2023-06-22T01:45:01;5.4;;;3.1;;
74644;SDS011;63163;55.630;37.594;2023-06-22T01:46:02;5.8;;;3.1;;
74644;SDS011;63163;55.630;37.594;2023-06-22T01:47:03;7.0;;;3.1;;
74644;SDS011;63163;55.630;37.594;2023-06-22T01:48:04;7.6;;;3.4;;
74644;SDS011;63163;55.630;37.594;2023-06-22T01:49:05;5.4;;;3.0;;
74644;SDS011;63163;55.630;37.594;2023-06-22T01:50:06;4.7;;;2.9;;
74644;SDS011;63163;55.630;37.594;2023-06-22T01:51:07;6.2;;;3.3;;
74644;SDS011;63163;55.630;37.594;2023-06-22T01:52:08;7.4;;;3.2;;
74644;SDS011;63163;55.630;37.594;2023-06-22T01:53:08;7.1;;;3.3;;
74644;SDS011;63163;55.630;37.594;2023-06-22T01:54:09;5.4;;;3.4;;
74644;SDS011;63163;55.630;37.594;2023-06-22T01:55:09;6.4;;;3.0;;
74644;SDS011;63163;55.630;37.594;2023-06-22T01:56:10;5.8;;;3.2;;
74644;SDS011;63163;55.630;37.594;2023-06-22T01:57:11;6.8;;;3.2;;
74644;SDS011;63163;55.630;37.594;2023-06-22T01:58:11;5.8;;;3.2;;
74644;SDS011;63163;55.630;37.594;2023-06-22T01:59:14;8.4;;;3.0;;
74644;SDS011;63163;55.630;37.594;2023-06-22T02:00:17;5.9;;;3.1;;
74644;SDS011;63163;55.630;37.594;2023-06-22T02:01:20;6.3;;;3.4;;
74644;SDS011;63163;55.630;37.594;2023-06-22T02:02:23;7.2;;;3.1;;
74644;SDS011;63163;55.630;37.594;2023-06-22T02:03:30;6.7;;;3.1;;
74644;SDS011;63163;55.630;37.594;2023-06-22T02:04:33;6.7;;;3.3;;
74644;SDS011;63163;55.630;37.594;2023-06-22T02:05:36;6.3;;;3.0;;
74644;SDS011;63163;55.630;37.594;2023-06-22T02:06:38;6.2;;;3.3;;
74644;SDS011;63163;55.630;37.594;2023-06-22T02:07:41;6.1;;;3.0;;
74644;SDS011;63163;55.630;37.594;2023-06-22T02:08:46;5.3;;;3.2;;
74644;SDS011;63163;55.630;37.594;2023-06-22T02:09:48;4.6;;;3.0;;
74644;SDS011;63163;55.630;37.594;2023-06-22T02:10:49;6.1;;;3.0;;
74644;SDS011;63163;55.630;37.594;2023-06-22T02:11:51;6.8;;;3.0;;
74644;SDS011;63163;55.630;37.594;2023-06-22T02:12:55;6.1;;;2.8;;
74644;SDS011;63163;55.630;37.594;2023-06-22T02:13:57;6.7;;;3.0;;
74644;SDS011;63163;55.630;37.594;2023-06-22T02:14:58;5.7;;;2.9;;
74644;SDS011;63163;55.630;37.594;2023-06-22T02:16:01;5.7;;;2.9;;
74644;SDS011;63163;55.630;37.594;2023-06-22T02:17:01;4.4;;;2.6;;
74644;SDS011;63163;55.630;37.594;2023-06-22T02:18:02;6.4;;;3.0;;
74644;SDS011;63163;55.630;37.594;2023-06-22T02:19:03;4.6;;;2.8;;
74644;SDS011;63163;55.630;37.594;2023-06-22T02:20:04;5.5;;;3.2;;
74644;SDS011;63163;55.630;37.594;2023-06-22T02:21:08;7.0;;;3.2;;
74644;SDS011;63163;55.630;37.594;2023-06-22T02:22:08;8.9;;;3.6;;
74644;SDS011;63163;55.630;37.594;2023-06-22T02:23:09;7.5;;;3.2;;
74644;SDS011;63163;55.630;37.594;2023-06-22T02:24:09;8.2;;;3.3;;
74644;SDS011;63163;55.630;37.594;2023-06-22T02:25:10;6.4;;;3.4;;
74644;SDS011;63163;55.630;37.594;2023-06-22T02:26:10;5.6;;;3.1;;
74644;SDS011;63163;55.630;37.594;2023-06-22T02:27:11;6.4;;;2.9;;
74644;SDS011;63163;55.630;37.594;2023-06-22T02:28:13;5.7;;;3.0;;
74644;SDS011;63163;55.630;37.594;2023-06-22T02:29:13;6.5;;;3.2;;
74644;SDS011;63163;55.630;37.594;2023-06-22T02:30:14;8.2;;;3.2;;
74644;SDS011;63163;55.630;37.594;2023-06-22T02:31:16;7.7;;;3.0;;
74644;SDS011;63163;55.630;37.594;2023-06-22T02:32:16;5.4;;;2.9;;
74644;SDS011;63163;55.630;37.594;2023-06-22T02:33:18;6.3;;;2.9;;
74644;SDS011;63163;55.630;37.594;2023-06-22T02:34:18;7.5;;;3.2;;
74644;SDS011;63163;55.630;37.594;2023-06-22T02:35:19;6.9;;;3.0;;
74644;SDS011;63163;55.630;37.594;2023-06-22T02:36:19;7.7;;;3.9;;
74644;SDS011;63163;55.630;37.594;2023-06-22T02:37:24;8.1;;;3.5;;
74644;SDS011;63163;55.630;37.594;2023-06-22T02:38:25;6.0;;;3.5;;
74644;SDS011;63163;55.630;37.594;2023-06-22T02:39:26;8.4;;;3.7;;
74644;SDS011;63163;55.630;37.594;2023-06-22T02:40:27;6.7;;;3.4;;
74644;SDS011;63163;55.630;37.594;2023-06-22T02:41:28;5.3;;;3.3;;
74644;SDS011;63163;55.630;37.594;2023-06-22T02:42:28;7.1;;;3.4;;
74644;SDS011;63163;55.630;37.594;2023-06-22T02:43:29;7.9;;;3.5;;
74644;SDS011;63163;55.630;37.594;2023-06-22T02:44:29;6.7;;;3.9;;
74644;SDS011;63163;55.630;37.594;2023-06-22T02:45:30;5.6;;;3.4;;
74644;SDS011;63163;55.630;37.594;2023-06-22T02:46:30;6.1;;;3.5;;
74644;SDS011;63163;55.630;37.594;2023-06-22T02:47:31;5.2;;;3.1;;
74644;SDS011;63163;55.630;37.594;2023-06-22T02:48:31;9.5;;;3.9;;
74644;SDS011;63163;55.630;37.594;2023-06-22T02:49:32;7.2;;;3.2;;
74644;SDS011;63163;55.630;37.594;2023-06-22T02:50:32;6.5;;;3.0;;
74644;SDS011;63163;55.630;37.594;2023-06-22T02:51:33;5.3;;;3.1;;
74644;SDS011;63163;55.630;37.594;2023-06-22T02:52:35;5.3;;;3.1;;
74644;SDS011;63163;55.630;37.594;2023-06-22T02:53:35;6.7;;;3.1;;
74644;SDS011;63163;55.630;37.594;2023-06-22T02:54:36;5.6;;;3.4;;
74644;SDS011;63163;55.630;37.594;2023-06-22T02:55:36;5.3;;;2.9;;
74644;SDS011;63163;55.630;37.594;2023-06-22T02:56:38;5.0;;;3.0;;
74644;SDS011;63163;55.630;37.594;2023-06-22T02:57:40;6.2;;;3.0;;
74644;SDS011;63163;55.630;37.594;2023-06-22T02:58:44;5.9;;;3.1;;
74644;SDS011;63163;55.630;37.594;2023-06-22T02:59:44;4.8;;;2.8;;
74644;SDS011;63163;55.630;37.594;2023-06-22T03:00:44;6.5;;;2.9;;
74644;SDS011;63163;55.630;37.594;2023-06-22T03:01:45;6.4;;;3.0;;
74644;SDS011;63163;55.630;37.594;2023-06-22T03:02:46;6.4;;;3.3;;
74644;SDS011;63163;55.630;37.594;2023-06-22T03:03:46;6.7;;;3.1;;
74644;SDS011;63163;55.630;37.594;2023-06-22T03:04:47;6.4;;;3.2;;
74644;SDS011;63163;55.630;37.594;2023-06-22T03:05:49;6.3;;;3.8;;
74644;SDS011;63163;55.630;37.594;2023-06-22T03:06:49;7.0;;;3.0;;
74644;SDS011;63163;55.630;37.594;2023-06-22T03:07:51;6.7;;;3.1;;
74644;SDS011;63163;55.630;37.594;2023-06-22T03:08:51;7.2;;;3.1;;
74644;SDS011;63163;55.630;37.594;2023-06-22T03:09:52;6.7;;;3.7;;
74644;SDS011;63163;55.630;37.594;2023-06-22T03:10:53;6.9;;;3.0;;
74644;SDS011;63163;55.630;37.594;2023-06-22T03:11:53;5.3;;;2.9;;
74644;SDS011;63163;55.630;37.594;2023-06-22T03:12:54;7.5;;;3.8;;
74644;SDS011;63163;55.630;37.594;2023-06-22T03:13:55;6.4;;;3.2;;
74644;SDS011;63163;55.630;37.594;2023-06-22T03:14:55;5.2;;;3.3;;
74644;SDS011;63163;55.630;37.594;2023-06-22T03:15:56;5.4;;;3.3;;
74644;SDS011;63163;55.630;37.594;2023-06-22T03:16:56;6.6;;;3.2;;
74644;SDS011;63163;55.630;37.594;2023-06-22T03:18:02;5.6;;;3.1;;
74644;SDS011;63163;55.630;37.594;2023-06-22T03:19:03;6.6;;;3.6;;
74644;SDS011;63163;55.630;37.594;2023-06-22T03:20:04;6.3;;;3.0;;
74644;SDS011;63163;55.630;37.594;2023-06-22T03:21:09;6.5;;;3.3;;
74644;SDS011;63163;55.630;37.594;2023-06-22T03:22:09;7.0;;;3.2;;
74644;SDS011;63163;55.630;37.594;2023-06-22T03:23:10;7.3;;;3.1;;
74644;SDS011;63163;55.630;37.594;2023-06-22T03:24:11;6.8;;;3.5;;
74644;SDS011;63163;55.630;37.594;2023-06-22T03:25:11;7.0;;;3.2;;
74644;SDS011;63163;55.630;37.594;2023-06-22T03:26:15;6.5;;;3.1;;
74644;SDS011;63163;55.630;37.594;2023-06-22T03:27:16;5.7;;;2.9;;
74644;SDS011;63163;55.630;37.594;2023-06-22T03:28:17;6.3;;;3.1;;
74644;SDS011;63163;55.630;37.594;2023-06-22T03:29:18;8.0;;;2.9;;
74644;SDS011;63163;55.630;37.594;2023-06-22T03:30:18;5.8;;;2.9;;
74644;SDS011;63163;55.630;37.594;2023-06-22T03:31:19;8.2;;;3.3;;
74644;SDS011;63163;55.630;37.594;2023-06-22T03:32:21;6.7;;;2.5;;
74644;SDS011;63163;55.630;37.594;2023-06-22T03:33:22;5.7;;;3.0;;
74644;SDS011;63163;55.630;37.594;2023-06-22T03:34:22;7.1;;;2.7;;
74644;SDS011;63163;55.630;37.594;2023-06-22T03:35:23;7.2;;;2.8;;
74644;SDS011;63163;55.630;37.594;2023-06-22T03:36:23;6.1;;;2.7;;
74644;SDS011;63163;55.630;37.594;2023-06-22T03:37:24;5.6;;;2.9;;
74644;SDS011;63163;55.630;37.594;2023-06-22T03:38:24;5.7;;;2.7;;
74644;SDS011;63163;55.630;37.594;2023-06-22T03:39:25;7.6;;;3.0;;
74644;SDS011;63163;55.630;37.594;2023-06-22T03:40:25;7.8;;;2.4;;
74644;SDS011;63163;55.630;37.594;2023-06-22T03:41:26;5.5;;;2.6;;
74644;SDS011;63163;55.630;37.594;2023-06-22T03:42:26;5.8;;;2.6;;
74644;SDS011;63163;55.630;37.594;2023-06-22T03:43:27;8.6;;;2.6;;
74644;SDS011;63163;55.630;37.594;2023-06-22T03:44:27;7.4;;;3.1;;
74644;SDS011;63163;55.630;37.594;2023-06-22T03:45:28;5.7;;;2.7;;
74644;SDS011;63163;55.630;37.594;2023-06-22T03:46:28;6.7;;;2.7;;
74644;SDS011;63163;55.630;37.594;2023-06-22T03:47:29;6.1;;;2.6;;
74644;SDS011;63163;55.630;37.594;2023-06-22T03:48:29;7.1;;;2.7;;
74644;SDS011;63163;55.630;37.594;2023-06-22T03:49:30;5.3;;;2.6;;
74644;SDS011;63163;55.630;37.594;2023-06-22T03:50:30;5.5;;;2.6;;
74644;SDS011;63163;55.630;37.594;2023-06-22T03:51:32;7.6;;;2.8;;
74644;SDS011;63163;55.630;37.594;2023-06-22T03:52:32;9.1;;;2.8;;
74644;SDS011;63163;55.630;37.594;2023-06-22T03:53:33;6.0;;;2.6;;
74644;SDS011;63163;55.630;37.594;2023-06-22T03:54:33;9.3;;;2.7;;
74644;SDS011;63163;55.630;37.594;2023-06-22T03:55:34;5.9;;;2.5;;
74644;SDS011;63163;55.630;37.594;2023-06-22T03:56:35;7.7;;;2.6;;
74644;SDS011;63163;55.630;37.594;2023-06-22T03:57:35;5.9;;;2.3;;
74644;SDS011;63163;55.630;37.594;2023-06-22T03:58:36;5.2;;;2.4;;
74644;SDS011;63163;55.630;37.594;2023-06-22T03:59:43;7.1;;;2.3;;
74644;SDS011;63163;55.630;37.594;2023-06-22T04:00:43;4.1;;;2.5;;
74644;SDS011;63163;55.630;37.594;2023-06-22T04:01:43;4.3;;;2.4;;
74644;SDS011;63163;55.630;37.594;2023-06-22T04:02:45;5.8;;;2.6;;
74644;SDS011;63163;55.630;37.594;2023-06-22T04:03:45;5.0;;;2.7;;
74644;SDS011;63163;55.630;37.594;2023-06-22T04:04:48;5.6;;;2.5;;
74644;SDS011;63163;55.630;37.594;2023-06-22T04:05:48;6.1;;;2.6;;
74644;SDS011;63163;55.630;37.594;2023-06-22T04:06:49;5.5;;;2.5;;
74644;SDS011;63163;55.630;37.594;2023-06-22T04:07:49;5.2;;;2.3;;
74644;SDS011;63163;55.630;37.594;2023-06-22T04:08:50;5.9;;;2.7;;
74644;SDS011;63163;55.630;37.594;2023-06-22T04:09:51;5.0;;;2.5;;
74644;SDS011;63163;55.630;37.594;2023-06-22T04:10:51;4.7;;;2.4;;
74644;SDS011;63163;55.630;37.594;2023-06-22T04:11:52;7.3;;;2.4;;
74644;SDS011;63163;55.630;37.594;2023-06-22T04:12:52;3.6;;;2.2;;
74644;SDS011;63163;55.630;37.594;2023-06-22T04:13:54;5.5;;;2.5;;
74644;SDS011;63163;55.630;37.594;2023-06-22T04:14:54;5.4;;;2.5;;
74644;SDS011;63163;55.630;37.594;2023-06-22T04:15:55;5.8;;;2.4;;
74644;SDS011;63163;55.630;37.594;2023-06-22T04:16:57;6.8;;;2.8;;
74644;SDS011;63163;55.630;37.594;2023-06-22T04:17:58;4.4;;;2.6;;
74644;SDS011;63163;55.630;37.594;2023-06-22T04:18:59;4.3;;;2.3;;
74644;SDS011;63163;55.630;37.594;2023-06-22T04:19:59;5.6;;;2.2;;
74644;SDS011;63163;55.630;37.594;2023-06-22T04:21:00;5.7;;;2.4;;
74644;SDS011;63163;55.630;37.594;2023-06-22T04:22:00;5.9;;;2.2;;
74644;SDS011;63163;55.630;37.594;2023-06-22T04:23:01;4.2;;;2.3;;
74644;SDS011;63163;55.630;37.594;2023-06-22T04:24:01;5.5;;;2.3;;
74644;SDS011;63163;55.630;37.594;2023-06-22T04:25:02;4.7;;;2.4;;
74644;SDS011;63163;55.630;37.594;2023-06-22T04:26:02;5.0;;;2.4;;
74644;SDS011;63163;55.630;37.594;2023-06-22T04:27:03;4.0;;;2.3;;
74644;SDS011;63163;55.630;37.594;2023-06-22T04:28:03;5.0;;;2.4;;
74644;SDS011;63163;55.630;37.594;2023-06-22T04:29:04;5.8;;;2.6;;
74644;SDS011;63163;55.630;37.594;2023-06-22T04:30:06;3.4;;;2.3;;
74644;SDS011;63163;55.630;37.594;2023-06-22T04:31:07;5.2;;;2.3;;
74644;SDS011;63163;55.630;37.594;2023-06-22T04:32:07;6.8;;;2.5;;
74644;SDS011;63163;55.630;37.594;2023-06-22T04:33:08;5.6;;;2.3;;
74644;SDS011;63163;55.630;37.594;2023-06-22T04:34:09;4.5;;;2.1;;
74644;SDS011;63163;55.630;37.594;2023-06-22T04:35:10;5.9;;;2.2;;
74644;SDS011;63163;55.630;37.594;2023-06-22T04:36:11;5.8;;;2.1;;
74644;SDS011;63163;55.630;37.594;2023-06-22T04:37:15;6.1;;;2.7;;
74644;SDS011;63163;55.630;37.594;2023-06-22T04:38:15;3.8;;;2.4;;
74644;SDS011;63163;55.630;37.594;2023-06-22T04:39:16;5.1;;;2.2;;
74644;SDS011;63163;55.630;37.594;2023-06-22T04:40:16;5.6;;;2.2;;
74644;SDS011;63163;55.630;37.594;2023-06-22T04:41:17;4.6;;;2.1;;
74644;SDS011;63163;55.630;37.594;2023-06-22T04:42:25;7.6;;;2.5;;
74644;SDS011;63163;55.630;37.594;2023-06-22T04:43:26;5.0;;;2.3;;
74644;SDS011;63163;55.630;37.594;2023-06-22T04:44:30;4.3;;;2.4;;
74644;SDS011;63163;55.630;37.594;2023-06-22T04:45:30;4.6;;;2.4;;
74644;SDS011;63163;55.630;37.594;2023-06-22T04:46:31;6.3;;;2.5;;
74644;SDS011;63163;55.630;37.594;2023-06-22T04:47:31;5.3;;;2.3;;
74644;SDS011;63163;55.630;37.594;2023-06-22T04:48:32;5.0;;;2.4;;
74644;SDS011;63163;55.630;37.594;2023-06-22T04:49:33;5.8;;;2.6;;
74644;SDS011;63163;55.630;37.594;2023-06-22T04:50:36;4.5;;;2.3;;
74644;SDS011;63163;55.630;37.594;2023-06-22T04:51:39;4.4;;;2.4;;
74644;SDS011;63163;55.630;37.594;2023-06-22T04:52:39;5.3;;;2.4;;
74644;SDS011;63163;55.630;37.594;2023-06-22T04:53:40;4.8;;;2.3;;
74644;SDS011;63163;55.630;37.594;2023-06-22T04:54:41;4.8;;;2.9;;
74644;SDS011;63163;55.630;37.594;2023-06-22T04:55:47;8.0;;;2.5;;
74644;SDS011;63163;55.630;37.594;2023-06-22T04:56:49;5.3;;;2.2;;
74644;SDS011;63163;55.630;37.594;2023-06-22T04:57:56;6.0;;;2.3;;
74644;SDS011;63163;55.630;37.594;2023-06-22T04:58:57;5.4;;;2.5;;
74644;SDS011;63163;55.630;37.594;2023-06-22T04:59:57;7.2;;;2.3;;
74644;SDS011;63163;55.630;37.594;2023-06-22T05:00:58;6.2;;;2.2;;
74644;SDS011;63163;55.630;37.594;2023-06-22T05:01:59;7.5;;;2.3;;
74644;SDS011;63163;55.630;37.594;2023-06-22T05:02:59;3.7;;;2.1;;
74644;SDS011;63163;55.630;37.594;2023-06-22T05:04:01;6.1;;;2.5;;
74644;SDS011;63163;55.630;37.594;2023-06-22T05:05:04;4.5;;;2.3;;
74644;SDS011;63163;55.630;37.594;2023-06-22T05:06:07;6.1;;;2.8;;
74644;SDS011;63163;55.630;37.594;2023-06-22T05:07:07;4.7;;;2.3;;
74644;SDS011;63163;55.630;37.594;2023-06-22T05:08:08;6.5;;;2.5;;
74644;SDS011;63163;55.630;37.594;2023-06-22T05:09:08;5.4;;;2.7;;
74644;SDS011;63163;55.630;37.594;2023-06-22T05:10:09;3.6;;;2.2;;
74644;SDS011;63163;55.630;37.594;2023-06-22T05:11:10;7.9;;;2.8;;
74644;SDS011;63163;55.630;37.594;2023-06-22T05:12:11;5.4;;;2.8;;
74644;SDS011;63163;55.630;37.594;2023-06-22T05:13:12;6.5;;;2.3;;
74644;SDS011;63163;55.630;37.594;2023-06-22T05:14:12;5.1;;;2.3;;
74644;SDS011;63163;55.630;37.594;2023-06-22T05:15:13;5.1;;;2.3;;
74644;SDS011;63163;55.630;37.594;2023-06-22T05:16:13;5.7;;;2.6;;
74644;SDS011;63163;55.630;37.594;2023-06-22T05:17:14;4.9;;;2.4;;
74644;SDS011;63163;55.630;37.594;2023-06-22T05:18:19;6.8;;;2.5;;
74644;SDS011;63163;55.630;37.594;2023-06-22T05:19:24;5.2;;;2.3;;
74644;SDS011;63163;55.630;37.594;2023-06-22T05:20:25;8.4;;;2.7;;
74644;SDS011;63163;55.630;37.594;2023-06-22T05:21:26;6.3;;;2.7;;
74644;SDS011;63163;55.630;37.594;2023-06-22T05:22:27;6.2;;;2.7;;
74644;SDS011;63163;55.630;37.594;2023-06-22T05:23:27;7.1;;;2.5;;
74644;SDS011;63163;55.630;37.594;2023-06-22T05:24:28;6.9;;;2.4;;
74644;SDS011;63163;55.630;37.594;2023-06-22T05:25:28;6.2;;;2.5;;
74644;SDS011;63163;55.630;37.594;2023-06-22T05:26:31;7.5;;;3.1;;
74644;SDS011;63163;55.630;37.594;2023-06-22T05:27:31;5.9;;;2.4;;
74644;SDS011;63163;55.630;37.594;2023-06-22T05:28:32;4.6;;;2.6;;
74644;SDS011;63163;55.630;37.594;2023-06-22T05:29:33;5.5;;;2.6;;
74644;SDS011;63163;55.630;37.594;2023-06-22T05:30:33;5.5;;;2.4;;
74644;SDS011;63163;55.630;37.594;2023-06-22T05:31:34;6.1;;;2.4;;
74644;SDS011;63163;55.630;37.594;2023-06-22T05:32:34;4.5;;;2.4;;
74644;SDS011;63163;55.630;37.594;2023-06-22T05:33:35;5.0;;;2.3;;
74644;SDS011;63163;55.630;37.594;2023-06-22T05:34:35;4.1;;;2.2;;
74644;SDS011;63163;55.630;37.594;2023-06-22T05:35:36;7.3;;;2.4;;
74644;SDS011;63163;55.630;37.594;2023-06-22T05:36:36;7.0;;;2.7;;
74644;SDS011;63163;55.630;37.594;2023-06-22T05:37:37;7.6;;;2.5;;
74644;SDS011;63163;55.630;37.594;2023-06-22T05:38:37;5.9;;;2.5;;
74644;SDS011;63163;55.630;37.594;2023-06-22T05:39:38;7.9;;;3.1;;
74644;SDS011;63163;55.630;37.594;2023-06-22T05:40:39;4.1;;;2.3;;
74644;SDS011;63163;55.630;37.594;2023-06-22T05:41:39;5.1;;;2.6;;
74644;SDS011;63163;55.630;37.594;2023-06-22T05:42:40;4.1;;;2.3;;
74644;SDS011;63163;55.630;37.594;2023-06-22T05:43:40;5.4;;;2.6;;
74644;SDS011;63163;55.630;37.594;2023-06-22T05:44:41;5.6;;;2.5;;
74644;SDS011;63163;55.630;37.594;2023-06-22T05:45:41;6.1;;;2.3;;
74644;SDS011;63163;55.630;37.594;2023-06-22T05:46:42;7.3;;;2.4;;
74644;SDS011;63163;55.630;37.594;2023-06-22T05:47:44;6.3;;;2.4;;
74644;SDS011;63163;55.630;37.594;2023-06-22T05:48:45;8.1;;;2.3;;
74644;SDS011;63163;55.630;37.594;2023-06-22T05:49:46;6.0;;;2.0;;
74644;SDS011;63163;55.630;37.594;2023-06-22T05:50:46;6.8;;;2.8;;
74644;SDS011;63163;55.630;37.594;2023-06-22T05:51:46;4.6;;;2.3;;
74644;SDS011;63163;55.630;37.594;2023-06-22T05:52:47;4.9;;;2.6;;
74644;SDS011;63163;55.630;37.594;2023-06-22T05:53:47;5.7;;;2.5;;
74644;SDS011;63163;55.630;37.594;2023-06-22T05:54:50;5.9;;;2.5;;
74644;SDS011;63163;55.630;37.594;2023-06-22T05:55:50;6.7;;;2.3;;
74644;SDS011;63163;55.630;37.594;2023-06-22T05:56:51;4.9;;;2.5;;
74644;SDS011;63163;55.630;37.594;2023-06-22T05:57:52;4.7;;;2.5;;
74644;SDS011;63163;55.630;37.594;2023-06-22T05:58:53;5.9;;;2.4;;
74644;SDS011;63163;55.630;37.594;2023-06-22T05:59:53;4.2;;;2.2;;
74644;SDS011;63163;55.630;37.594;2023-06-22T06:00:54;5.5;;;2.5;;
74644;SDS011;63163;55.630;37.594;2023-06-22T06:01:55;5.7;;;2.2;;
74644;SDS011;63163;55.630;37.594;2023-06-22T06:02:56;4.4;;;2.5;;
74644;SDS011;63163;55.630;37.594;2023-06-22T06:03:56;5.7;;;2.3;;
74644;SDS011;63163;55.630;37.594;2023-06-22T06:04:57;3.3;;;2.2;;
74644;SDS011;63163;55.630;37.594;2023-06-22T06:05:57;6.8;;;2.3;;
74644;SDS011;63163;55.630;37.594;2023-06-22T06:06:58;8.3;;;2.7;;
74644;SDS011;63163;55.630;37.594;2023-06-22T06:07:59;4.9;;;2.4;;
74644;SDS011;63163;55.630;37.594;2023-06-22T06:08:59;6.5;;;2.6;;
74644;SDS011;63163;55.630;37.594;2023-06-22T06:10:00;5.1;;;2.5;;
74644;SDS011;63163;55.630;37.594;2023-06-22T06:11:01;4.6;;;2.4;;
74644;SDS011;63163;55.630;37.594;2023-06-22T06:12:01;4.7;;;2.4;;
74644;SDS011;63163;55.630;37.594;2023-06-22T06:13:03;5.8;;;2.5;;
74644;SDS011;63163;55.630;37.594;2023-06-22T06:14:04;3.8;;;2.4;;
74644;SDS011;63163;55.630;37.594;2023-06-22T06:15:05;4.7;;;2.1;;